deformed-offering

Nearby METAR Reports

 

KSJC - San Jose, California, USA
Distance from station: NE 9mi, 14km
Updated: Thu, 02-Apr-2020 7:53am PDT
Clear
Clear
 Wind from calm
Wind: Calm
Temperature: 45°F , 7°C
Dew Point: 37°F , 3°C
Humidity: 76%
Barometer: 30.09 inHg , 1019 hPa
Clouds: Clear
Visibility: 10 miles , 16 km
2020/04/02 14:53 KSJC 021453Z 00000KT 10SM CLR 07/03 A3009 RMK AO2 SLP190 T00670033 53015
KRHV - San Jose/Reid, California, USA
Distance from station: ENE 12mi, 19km
Updated: Thu, 02-Apr-2020 7:47am PDT
Clear
Clear
 Wind from calm
Wind: Calm
Temperature: 45°F , 7°C
Dew Point: 39°F , 4°C
Humidity: 81%
Barometer: 30.10 inHg , 1019.3 hPa
Clouds: Clear
Visibility: 10 miles , 16 km
2020/04/02 14:47 KRHV 021447Z 00000KT 10SM SKC 07/04 A3010
 
KPAO - Palo Alto, California, USA
Distance from station: NNW 14mi, 23km
Updated: Thu, 02-Apr-2020 7:47am PDT
Clear
Clear
 Wind from calm
Wind: Calm
Temperature: 45°F , 7°C
Dew Point: 39°F , 4°C
Humidity: 81%
Barometer: 30.10 inHg , 1019.3 hPa
Clouds: Clear
Visibility: 10 miles , 16 km
2020/04/02 14:47 KPAO 021447Z 00000KT 10SM SKC 07/04 A3010
KSQL - San Carlos Airpo, California, USA
Distance from station: NW 21mi, 34km
Updated: Thu, 02-Apr-2020 7:00am PDT
Clear
Clear
 Wind from calm
Wind: Calm
Temperature: 45°F , 7°C
Dew Point: 39°F , 4°C
Humidity: 81%
Barometer: 30.09 inHg , 1019 hPa
Clouds: Clear
Visibility: 10 miles , 16 km
2020/04/02 14:00 KSQL 021400Z AUTO 00000KT 10SM CLR 07/04 A3009 RMK AO2
 
KWVI - Watsonville, California, USA
Distance from station: SSE 27mi, 44km
Updated: Thu, 02-Apr-2020 7:53am PDT
Clear
Clear
 Wind from varies
Wind: varies 3 mph , 6 km/h
Temperature: 45°F , 7°C
Dew Point: 39°F , 4°C
Humidity: 81%
Barometer: 30.08 inHg , 1018.6 hPa
Clouds: Clear
Visibility: 10 miles , 16 km
2020/04/02 14:53 KWVI 021453Z AUTO VRB03KT 10SM CLR 07/04 A3008 RMK AO2 SLP186 T00670039 53014
KHWD - Hayward, California, USA
Distance from station: N 28mi, 44km
Updated: Thu, 02-Apr-2020 7:54am PDT
Clear
Clear
 Wind from ENE
Wind: ENE 6 mph , 9 km/h
Temperature: 45°F , 7°C
Wind Chill: 42°F , 6°C
Dew Point: 37°F , 3°C
Humidity: 76%
Barometer: 30.09 inHg , 1019 hPa
Clouds: Clear
Visibility: 10 miles , 16 km
2020/04/02 14:54 KHWD 021454Z 06005KT 10SM CLR 07/03 A3009 RMK AO2 SLP200 T00720028 53015
 
KSFO - San Francisco, California, USA
Distance from station: NW 30mi, 49km
Updated: Thu, 02-Apr-2020 7:56am PDT
Clear
Clear
 Wind from WNW
Wind: WNW 7 mph , 11 km/h
Temperature: 48°F , 9°C
Wind Chill: 45°F , 7°C
Dew Point: 41°F , 5°C
Humidity: 76%
Barometer: 30.10 inHg , 1019.3 hPa
Clouds: Clear
Visibility: 10 miles , 16 km
2020/04/02 14:56 KSFO 021456Z 29006KT 10SM CLR 09/05 A3010 RMK AO2 SLP191 T00940050 52015
KHAF - Half Moon Bay, California, USA
Distance from station: WNW 31mi, 50km
Updated: Thu, 02-Apr-2020 8:00am PDT
Clear
Clear
 Wind from NNW
Wind: NNW 13 mph , 20 km/h
Temperature: 48°F , 9°C
Wind Chill: 43°F , 6°C
Dew Point: 43°F , 6°C
Humidity: 82%
Barometer: 30.10 inHg , 1019.3 hPa
Clouds: Clear
Visibility: 7 miles , 11 km
2020/04/02 15:00 KHAF 021500Z AUTO 34011KT 7SM CLR 09/06 A3010 RMK AO2
 
KLVK - Livermore, California, USA
Distance from station: NNE 31mi, 51km
Updated: Thu, 02-Apr-2020 7:53am PDT
Clear
Clear
 Wind from calm
Wind: Calm
Temperature: 41°F , 5°C
Dew Point: 37°F , 3°C
Humidity: 87%
Barometer: 30.09 inHg , 1019 hPa
Clouds: Clear
Visibility: 10 miles , 16 km
2020/04/02 14:53 KLVK 021453Z 00000KT 10SM CLR 05/03 A3009 RMK AO2 SLP187 T00500028 53014
KOAK - Oakland, California, USA
Distance from station: NNW 33mi, 53km
Updated: Thu, 02-Apr-2020 7:53am PDT
Clear
Clear
 Wind from calm
Wind: Calm
Temperature: 48°F , 9°C
Dew Point: 41°F , 5°C
Humidity: 76%
Barometer: 30.10 inHg , 1019.3 hPa
Clouds: Clear
Visibility: 10 miles , 16 km
2020/04/02 14:53 KOAK 021453Z 00000KT 10SM CLR 09/05 A3010 RMK AO2 SLP193 T00890050 53015
 
KCVH - Hollister Muni, California, USA
Distance from station: SE 42mi, 68km
Updated: Thu, 02-Apr-2020 8:00am PDT
Clear
Clear
 Wind from calm
Wind: Calm
Temperature: 37°F , 3°C
Dew Point: 36°F , 2°C
Humidity: 93%
Barometer: 30.10 inHg , 1019.3 hPa
Clouds: Clear
Visibility: 10 miles , 16 km
2020/04/02 15:00 KCVH 021500Z AUTO 00000KT 10SM CLR 03/02 A3010 RMK A01
KSNS - Salinas, California, USA
Distance from station: SSE 48mi, 77km
Updated: Thu, 02-Apr-2020 7:53am PDT
Clear
Clear
 Wind from calm
Wind: Calm
Temperature: 43°F , 6°C
Dew Point: 39°F , 4°C
Humidity: 87%
Barometer: 30.07 inHg , 1018.3 hPa
Clouds: Clear
Visibility: 9 miles , 14 km
2020/04/02 14:53 KSNS 021453Z 00000KT 9SM CLR 06/04 A3007 RMK AO2 SLP193 T00560044 53013
 
KMRY - Monterey, California, USA
Distance from station: SSE 49mi, 78km
Updated: Thu, 02-Apr-2020 7:54am PDT
Clear
Clear
 Wind from calm
Wind: Calm
Temperature: 46°F , 8°C
Dew Point: 37°F , 3°C
Humidity: 71%
Barometer: 30.08 inHg , 1018.6 hPa
Clouds: Clear
Visibility: 10 miles , 16 km
2020/04/02 14:54 KMRY 021454Z 00000KT 10SM CLR 08/03 A3008 RMK AO2 SLP198 T00830028 53015
KCCR - Concord, California, USA
Distance from station: N 50mi, 81km
Updated: Thu, 02-Apr-2020 7:53am PDT
Clear
Clear
 Wind from SSE
Wind: SSE 3 mph , 6 km/h
Temperature: 45°F , 7°C
Dew Point: 37°F , 3°C
Humidity: 76%
Barometer: 30.10 inHg , 1019.3 hPa
Clouds: Clear
Visibility: 10 miles , 16 km
2020/04/02 14:53 KCCR 021453Z 16003KT 10SM CLR 07/03 A3010 RMK AO2 SLP179 T00670033 53015
deformed-offering